Latest Coastal Weather Observations for Wyndham Airport

IDD60701

Issued at 10:31 pm CST Saturday 19 August 2017 (issued every 10 minutes, with the page automatically refreshed every 10 minutes)

About coastal observations | Map of coastal stations | Coastal observations for NT | Marine services | Other Formats
Station Details ID: 001006 Name: WYNDHAM AERO Lat: -15.51 Lon: 128.15 Height: 3.8 m
Data from the previous 72 hours. | See also: Recent months at Wyndham Airport
Date/Time
CST
Temp
°C
Wind Pressure Rain since
9am
mm
Weather Cloud Vis
km
Sea
Height
m
Swell
Dir  Spd
kts
Gust
kts
hPa Trend Height
m
Period
s
Dir
19/10:30pm 26.8 S 3 5 1013.3 - 0.0 - - - - - - -
19/10:00pm 27.3 SW 4 7 1013.2 - 0.0 - - - - - - -
19/09:30pm 26.8 N 2 3 1013.0 - 0.0 - - - - - - -
19/09:00pm 29.3 NW 6 7 1012.7 - 0.0 - - - - - - -
19/08:30pm 30.0 WNW 5 7 1012.4 - 0.0 - - - - - - -
19/08:00pm 30.4 N 7 10 1012.0 - 0.0 - - - - - - -
19/07:30pm 30.5 N 8 11 1011.7 - 0.0 - - - - - - -
19/07:00pm 31.4 NW 9 12 1011.4 - 0.0 - - - - - - -
19/06:30pm 32.6 NNW 12 15 1010.9 - 0.0 - - - - - - -
19/06:00pm 34.0 N 14 17 1010.6 - 0.0 - - - - - - -
19/05:30pm 35.1 NNW 10 15 1010.4 - 0.0 - - - - - - -
19/05:00pm 37.1 ENE 10 17 1010.3 - 0.0 - - - - - - -
19/04:30pm 37.3 E 11 17 1010.3 - 0.0 - - - - - - -
19/04:00pm 37.6 NE 9 16 1010.4 - 0.0 - - - - - - -
19/03:30pm 37.3 ENE 7 13 1010.7 - 0.0 - - - - - - -
19/03:00pm 37.1 NE 7 18 1011.0 - 0.0 - - - - - - -
19/02:30pm 36.8 NE 9 16 1011.5 - 0.0 - - - - - - -
19/02:00pm 37.2 NE 12 19 1012.0 - 0.0 - - - - - - -
19/01:30pm 35.9 NE 10 16 1012.6 - 0.0 - - - - - - -
19/01:00pm 36.1 E 9 14 1013.3 - 0.0 - - - - - - -
19/12:30pm 35.0 NE 9 12 1014.0 - 0.0 - - - - - - -
19/12:00pm 34.5 E 8 15 1014.5 - 0.0 - - - - - - -
19/11:30am 33.8 E 7 11 1015.1 - 0.0 - - - - - - -
19/11:00am 32.5 E 8 10 1015.5 - 0.0 - - - - - - -
19/10:30am 31.4 ESE 9 12 1015.7 - 0.0 - - - - - - -
19/10:00am 29.5 ESE 5 7 1015.6 - 0.0 - - - - - - -
19/09:30am 28.0 ESE 7 9 1015.5 - 0.0 - - - - - - -
19/09:00am 26.5 ESE 6 7 1015.2 - 0.0 - - - - - - -
19/08:30am 24.9 ESE 6 8 1015.1 - 0.0 - - - - - - -
19/08:00am 22.9 E 5 6 1014.8 - 0.0 - - - - - - -
19/07:30am 21.0 SE 5 6 1014.4 - 0.0 - - - - - - -
19/07:00am 21.5 NW 1 3 1014.1 - 0.0 - - - - - - -
19/06:30am 21.6 ESE 5 6 1013.7 - 0.0 - - - - - - -
19/06:00am 21.6 ESE 6 8 1013.4 - 0.0 - - - - - - -
19/05:30am 22.1 ESE 7 8 1013.0 - 0.0 - - - - - - -
19/05:00am 22.7 E 6 7 1012.8 - 0.0 - - - - - - -
19/04:30am 22.7 ENE 4 5 1012.7 - 0.0 - - - - - - -
19/04:00am 23.3 E 4 5 1012.6 - 0.0 - - - - - - -
19/03:30am 23.9 ESE 9 11 1012.6 - 0.0 - - - - - - -
19/03:00am 23.7 E 8 10 1012.7 - 0.0 - - - - - - -
19/02:30am 24.0 E 9 11 1012.8 - 0.0 - - - - - - -
19/02:00am 24.3 E 8 10 1012.8 - 0.0 - - - - - - -
19/01:30am 24.5 E 8 10 1012.6 - 0.0 - - - - - - -
19/01:00am 25.3 ESE 6 8 1012.6 - 0.0 - - - - - - -
19/12:30am 25.0 ESE 6 7 1012.5 - 0.0 - - - - - - -
19/12:00am 25.3 NNW 3 4 1012.4 - 0.0 - - - - - - -
 
Date/Time
CST
Temp
°C
Wind Pressure Rain since
9am
mm
Weather Cloud Vis
km
Sea
Height
m
Swell
Dir  Spd
kts
Gust
kts
hPa Trend Height
m
Period
s
Dir
18/11:30pm 25.7 NNW 3 4 1012.4 - 0.0 - - - - - - -
18/11:00pm 27.4 SW 3 5 1012.5 - 0.0 - - - - - - -
18/10:30pm 27.9 SSW 6 8 1012.6 - 0.0 - - - - - - -
18/10:00pm 28.1 SW 6 7 1012.6 - 0.0 - - - - - - -
18/09:30pm 29.2 SW 7 9 1012.5 - 0.0 - - - - - - -
18/09:00pm 30.1 CALM 0 0 1012.2 - 0.0 - - - - - - -
18/08:30pm 29.6 CALM 0 2 1011.8 - 0.0 - - - - - - -
18/08:00pm 31.4 N 6 8 1011.3 - 0.0 - - - - - - -
18/07:30pm 31.9 N 8 11 1011.0 - 0.0 - - - - - - -
18/07:00pm 32.4 N 9 11 1010.8 - 0.0 - - - - - - -
18/06:30pm 33.4 N 9 11 1010.4 - 0.0 - - - - - - -
18/06:00pm 34.3 N 9 12 1010.2 - 0.0 - - - - - - -
18/05:30pm 35.2 WNW 9 12 1009.9 - 0.0 - - - - - - -
18/05:00pm 35.2 NW 10 15 1009.6 - 0.0 - - - - - - -
18/04:30pm 35.6 NW 9 14 1009.5 - 0.0 - - - - - - -
18/04:00pm 35.6 N 9 15 1009.5 - 0.0 - - - - - - -
18/03:30pm 36.5 N 9 13 1009.7 - 0.0 - - - - - - -
18/03:00pm 35.9 NE 6 11 1010.1 - 0.0 - - - - - - -
18/02:30pm 35.3 NE 5 8 1010.5 - 0.0 - - - - - - -
18/02:00pm 36.0 N 7 13 1011.1 - 0.0 - - - - - - -
18/01:30pm 35.7 N 8 13 1011.5 - 0.0 - - - - - - -
18/01:00pm 35.3 NE 9 15 1012.0 - 0.0 - - - - - - -
18/12:30pm 35.5 NE 5 9 1012.3 - 0.0 - - - - - - -
18/12:00pm 34.9 E 7 9 1012.7 - 0.0 - - - - - - -
18/11:30am 33.7 ENE 6 9 1013.0 - 0.0 - - - - - - -
18/11:00am 32.2 E 6 9 1013.5 - 0.0 - - - - - - -
18/10:30am 31.1 E 7 9 1013.7 - 0.0 - - - - - - -
18/10:00am 29.6 ESE 7 9 1013.5 - 0.0 - - - - - - -
18/09:30am 28.0 ESE 7 9 1013.4 - 0.0 - - - - - - -
18/09:00am 26.1 ESE 7 8 1013.2 - 0.0 - - - - - - -
18/08:30am 23.9 ESE 5 7 1012.9 - 0.0 - - - - - - -
18/08:00am 22.4 NNE 3 3 1012.6 - 0.0 - - - - - - -
18/07:30am 19.9 NE 4 4 1012.0 - 0.0 - - - - - - -
18/07:00am 19.4 ESE 3 4 1011.6 - 0.0 - - - - - - -
18/06:30am 20.2 E 6 7 1011.2 - 0.0 - - - - - - -
18/06:00am 20.7 E 7 7 1010.6 - 0.0 - - - - - - -
18/05:30am 20.5 E 7 8 1010.4 - 0.0 - - - - - - -
18/05:00am 19.9 E 4 6 1010.2 - 0.0 - - - - - - -
18/04:30am 20.8 CALM 0 0 1010.1 - 0.0 - - - - - - -
18/04:00am 21.2 CALM 0 0 1010.2 - 0.0 - - - - - - -
18/03:30am 21.4 CALM 0 0 1010.2 - 0.0 - - - - - - -
18/03:00am 21.4 WNW 2 3 1010.3 - 0.0 - - - - - - -
18/02:30am 21.8 SW 4 5 1010.3 - 0.0 - - - - - - -
18/02:00am 22.2 ENE 2 4 1010.6 - 0.0 - - - - - - -
18/01:30am 22.7 E 4 5 1011.0 - 0.0 - - - - - - -
18/01:00am 23.5 ESE 7 8 1011.2 - 0.0 - - - - - - -
18/12:30am 23.6 ENE 5 6 1011.3 - 0.0 - - - - - - -
18/12:00am 24.0 E 7 9 1011.2 - 0.0 - - - - - - -
 
Date/Time
CST
Temp
°C
Wind Pressure Rain since
9am
mm
Weather Cloud Vis
km
Sea
Height
m
Swell
Dir  Spd
kts
Gust
kts
hPa Trend Height
m
Period
s
Dir
17/11:30pm 25.0 E 8 10 1011.1 - 0.0 - - - - - - -
17/11:00pm 26.6 SE 5 6 1011.0 - 0.0 - - - - - - -
17/10:30pm 29.7 WSW 4 6 1011.0 - 0.0 - - - - - - -
17/10:00pm 29.8 NW 6 8 1010.9 - 0.0 - - - - - - -
17/09:30pm 29.1 SW 5 8 1010.6 - 0.0 - - - - - - -
17/09:00pm 30.5 N 9 11 1010.2 - 0.0 - - - - - - -
17/08:30pm 30.4 N 11 15 1009.7 - 0.0 - - - - - - -
17/08:00pm 30.6 N 12 17 1009.3 - 0.0 - - - - - - -
17/07:30pm 31.2 N 12 17 1008.9 - 0.0 - - - - - - -
17/07:00pm 31.9 NNW 4 5 1008.4 - 0.0 - - - - - - -
17/06:30pm 34.2 NNW 7 9 1008.1 - 0.0 - - - - - - -
17/06:00pm 35.8 NNW 9 11 1007.7 - 0.0 - - - - - - -
17/05:30pm 36.7 NNW 9 13 1007.5 - 0.0 - - - - - - -
17/05:00pm 37.0 NNW 9 14 1007.3 - 0.0 - - - - - - -
17/04:30pm 37.6 NW 10 15 1007.3 - 0.0 - - - - - - -
17/04:00pm 37.4 WNW 9 13 1007.5 - 0.0 - - - - - - -
17/03:30pm 37.4 WNW 5 9 1007.7 - 0.0 - - - - - - -
17/03:00pm 37.0 W 6 11 1008.0 - 0.0 - - - - - - -
17/02:30pm 37.5 SW 5 7 1008.4 - 0.0 - - - - - - -
17/02:00pm 36.7 WSW 6 10 1008.9 - 0.0 - - - - - - -
17/01:30pm 35.2 SSW 6 8 1009.4 - 0.0 - - - - - - -
17/01:00pm 35.0 WSW 5 7 1010.0 - 0.0 - - - - - - -
17/12:30pm 34.1 SW 4 7 1010.5 - 0.0 - - - - - - -
17/12:00pm 33.2 WSW 7 10 1011.0 - 0.0 - - - - - - -
17/11:30am 32.3 WSW 7 11 1011.5 - 0.0 - - - - - - -
17/11:00am 31.5 W 8 11 1011.8 - 0.0 - - - - - - -
17/10:30am 29.0 WSW 4 7 1012.2 - 0.0 - - - - - - -
17/10:00am 27.8 W 4 5 1012.2 - 0.0 - - - - - - -
17/09:30am 26.6 WSW 4 6 1012.1 - 0.0 - - - - - - -
17/09:00am 24.9 W 3 4 1012.0 - 0.0 - - - - - - -
17/08:30am 23.2 WNW 3 4 1011.9 - 0.0 - - - - - - -
17/08:00am 20.3 WSW 3 3 1011.7 - 0.0 - - - - - - -
17/07:30am 18.7 SSE 3 5 1011.5 - 0.0 - - - - - - -
17/07:00am 17.9 ESE 4 5 1011.1 - 0.0 - - - - - - -
17/06:30am 18.6 E 5 5 1011.0 - 0.0 - - - - - - -
17/06:00am 19.1 E 5 6 1010.7 - 0.0 - - - - - - -
17/05:30am 18.7 ESE 7 7 1010.4 - 0.0 - - - - - - -
17/05:00am 19.0 CALM 0 0 1010.4 - 0.0 - - - - - - -
17/04:30am 19.4 CALM 0 0 1010.3 - 0.0 - - - - - - -
17/04:00am 19.0 CALM 0 0 1010.4 - 0.0 - - - - - - -
17/03:30am 19.0 CALM 0 0 1010.4 - 0.0 - - - - - - -
17/03:00am 19.6 CALM 0 0 1010.6 - 0.0 - - - - - - -
17/02:30am 20.1 E 1 3 1010.8 - 0.0 - - - - - - -
17/02:00am 20.7 E 4 5 1010.8 - 0.0 - - - - - - -
17/01:30am 21.4 E 5 5 1011.0 - 0.0 - - - - - - -
17/01:00am 21.8 ESE 6 7 1011.2 - 0.0 - - - - - - -
17/12:30am 21.9 ESE 5 6 1011.3 - 0.0 - - - - - - -

Other Formats:

Comma delimited format used in spreadsheet applications
http://www.bom.gov.au/fwo/IDD60701/IDD60701.95214.axf

JavaScript Object Notation format (JSON) in row-major order
http://www.bom.gov.au/fwo/IDD60701/IDD60701.95214.json